Time;durP1;ratioP1;P1;durP2;ratioP2;P2;SDS_P1;SDS_P2;PMS_P1;PMS_P2;Temp;Humidity;BMP_temperature;BMP_pressure;BME280_temperature;BME280_humidity;BME280_pressure;Samples;Min_cycle;Max_cycle;Signal;HPM_P1;HPM_P2
2022/05/03 12:23:52;;;;;;;4.05;0.80;;;;;;;22.94;26.56;100903.41;5080442;27;20201;-68
2022/05/03 12:26:23;;;;;;;2.20;1.00;;;;;;;23.28;27.03;100913.22;5081029;28;20147;-65
2022/05/03 12:28:53;;;;;;;1.77;0.82;;;;;;;23.95;26.91;100903.13;5081372;28;20063;-67
2022/05/03 12:31:21;;;;;;;1.30;0.90;;;;;;;24.15;26.26;100903.63;5080409;28;20068;-66
2022/05/03 12:33:52;;;;;;;3.85;0.70;;;;;;;24.82;25.46;100887.06;5082351;28;20068;-66
2022/05/03 12:36:33;;;;;;;2.55;1.13;;;;;;;24.93;24.82;100893.88;5079106;28;20046;-67
2022/05/03 12:39:11;;;;;;;2.95;0.73;;;;;;;24.23;24.52;100898.22;5084771;28;20048;-65
2022/05/03 12:41:38;;;;;;;0.98;0.70;;;;;;;24.59;25.00;100896.94;5086133;28;20062;-66
2022/05/03 12:44:08;;;;;;;5.32;1.05;;;;;;;24.78;23.99;100890.28;5084203;28;20047;-66
2022/05/03 12:46:36;;;;;;;1.00;0.60;;;;;;;24.24;24.45;100902.56;5082425;28;20139;-69
2022/05/03 12:49:05;;;;;;;10.10;0.90;;;;;;;24.48;23.94;100895.47;5094859;28;20048;-58
2022/05/03 12:51:32;;;;;;;5.13;1.20;;;;;;;24.60;24.43;100883.31;5082353;28;20052;-55
2022/05/03 12:54:04;;;;;;;4.28;1.30;;;;;;;24.86;24.84;100892.94;5086787;28;20048;-69
2022/05/03 12:59:18;;;;;;;3.83;0.57;;;;;;;23.44;24.97;100888.19;5077608;28;20079;-66
2022/05/03 13:01:46;;;;;;;2.03;1.10;;;;;;;23.41;25.74;100893.91;5078650;28;20059;-66
2022/05/03 13:04:14;;;;;;;2.63;0.52;;;;;;;23.64;25.57;100886.00;5079998;28;20071;-66
2022/05/03 13:06:42;;;;;;;1.67;0.80;;;;;;;24.22;26.00;100866.91;5081090;28;20063;-69
2022/05/03 13:09:09;;;;;;;3.08;0.70;;;;;;;25.07;24.02;100870.72;5080039;28;20472;-59
2022/05/03 13:11:40;;;;;;;17.83;1.52;;;;;;;24.96;23.11;100877.38;5086677;28;20068;-60
2022/05/03 13:14:08;;;;;;;2.05;0.70;;;;;;;23.68;25.10;100882.84;5085153;28;20050;-67
2022/05/03 13:16:36;;;;;;;2.15;0.80;;;;;;;23.69;25.43;100884.53;5082860;28;20059;-59
2022/05/03 13:19:04;;;;;;;4.85;1.25;;;;;;;23.63;24.93;100873.56;5086255;28;20058;-61
2022/05/03 13:21:35;;;;;;;1.52;0.60;;;;;;;24.47;24.40;100880.34;5076237;28;20098;-61
2022/05/03 13:24:04;;;;;;;5.00;1.00;;;;;;;25.30;24.27;100874.28;5079601;28;20048;-67
2022/05/03 13:26:32;;;;;;;3.08;0.90;;;;;;;25.42;23.69;100874.72;5082469;28;20044;-67
2022/05/03 13:29:01;;;;;;;5.53;1.38;;;;;;;25.85;23.91;100866.91;5078552;28;20064;-67
2022/05/03 13:31:29;;;;;;;2.42;0.80;;;;;;;26.31;22.95;100864.06;5089080;28;20072;-65
2022/05/03 13:33:56;;;;;;;4.88;0.70;;;;;;;25.62;22.58;100870.50;5073870;28;20498;-65
2022/05/03 13:41:55;;;;;;;4.05;0.60;;;;;;;25.85;22.47;100873.19;5066309;28;20838;-65
2022/05/03 13:44:25;;;;;;;1.33;0.65;;;;;;;26.79;23.16;100867.16;5067725;28;20607;-65
2022/05/03 13:46:52;;;;;;;8.05;1.23;;;;;;;28.08;22.40;100865.22;5065676;28;20048;-65
2022/05/03 13:49:20;;;;;;;19.05;2.95;;;;;;;28.81;22.68;100869.13;5063988;28;20452;-65
2022/05/03 13:51:47;;;;;;;4.53;1.08;;;;;;;29.75;20.94;100865.50;5067789;28;20519;-63
2022/05/03 13:54:14;;;;;;;6.07;1.45;;;;;;;27.54;22.97;100873.97;5065401;28;20061;-64
2022/05/03 13:56:41;;;;;;;8.20;1.45;;;;;;;26.41;24.17;100870.84;5067414;28;20049;-64
2022/05/03 13:59:08;;;;;;;6.75;1.38;;;;;;;25.31;25.56;100872.44;5072245;28;20060;-64
2022/05/03 14:01:37;;;;;;;7.95;1.40;;;;;;;27.56;24.52;100864.66;5074111;28;20070;-64
2022/05/03 14:04:05;;;;;;;2.97;1.20;;;;;;;29.43;21.57;100864.44;5066620;28;20055;-65
2022/05/03 14:06:33;;;;;;;2.50;1.35;;;;;;;32.36;18.24;100870.81;5070418;28;20048;-65
2022/05/03 14:09:00;;;;;;;9.38;1.10;;;;;;;33.45;17.83;100863.44;5073681;28;20048;-63
2022/05/03 14:11:27;;;;;;;8.43;1.52;;;;;;;35.51;15.50;100870.16;5072043;28;20055;-65
2022/05/03 14:13:54;;;;;;;3.20;1.20;;;;;;;36.51;15.60;100865.53;5066815;28;20059;-65
2022/05/03 14:16:21;;;;;;;3.38;1.33;;;;;;;40.30;12.95;100861.28;5065384;28;20048;-64
2022/05/03 14:18:49;;;;;;;2.55;1.30;;;;;;;39.28;13.64;100861.50;5067850;28;20488;-66
2022/05/03 14:21:16;;;;;;;5.63;1.33;;;;;;;34.04;16.40;100866.19;5067752;28;20409;-64
2022/05/03 14:23:55;;;;;;;10.75;1.80;;;;;;;30.02;19.68;100863.59;5065542;28;20056;-62
2022/05/03 14:26:22;;;;;;;11.10;1.40;;;;;;;27.73;22.42;100871.44;5072134;28;20159;-62
2022/05/03 14:28:50;;;;;;;8.80;1.40;;;;;;;26.53;24.32;100870.41;5068908;28;20056;-63
2022/05/03 14:31:17;;;;;;;6.85;1.30;;;;;;;26.41;24.29;100867.31;5064425;28;20052;-64
2022/05/03 14:33:44;;;;;;;3.10;1.60;;;;;;;26.57;24.81;100868.97;5064276;28;20055;-63
2022/05/03 14:36:11;;;;;;;3.38;1.33;;;;;;;26.29;24.88;100864.25;5064550;28;20056;-63
2022/05/03 14:38:40;;;;;;;5.55;1.27;;;;;;;26.38;24.99;100862.28;5071884;28;20402;-63
2022/05/03 14:41:07;;;;;;;3.00;1.20;;;;;;;26.57;24.78;100867.16;5074603;28;20056;-63
2022/05/03 14:43:34;;;;;;;10.10;1.50;;;;;;;25.32;25.82;100866.88;5067075;28;20057;-61
2022/05/03 14:46:01;;;;;;;7.80;1.60;;;;;;;24.65;26.62;100872.00;5066188;28;20063;-62
2022/05/03 14:48:29;;;;;;;3.10;1.23;;;;;;;23.89;27.52;100866.19;5067644;28;20048;-64
2022/05/03 14:50:56;;;;;;;2.38;1.67;;;;;;;23.24;28.32;100864.34;5061829;28;20060;-63
2022/05/03 14:53:23;;;;;;;5.97;1.40;;;;;;;23.17;28.15;100868.69;5068089;28;20051;-63
2022/05/03 15:04:08;;;;;;;2.75;1.20;;;;;;;21.90;30.53;100865.16;5073599;28;20040;-63
2022/05/03 15:06:40;;;;;;;7.00;1.42;;;;;;;21.60;31.07;100871.81;5067303;28;20400;-63
2022/05/03 15:09:08;;;;;;;3.15;1.30;;;;;;;21.27;32.11;100866.16;5069682;28;20058;-60
2022/05/03 15:11:36;;;;;;;4.10;1.23;;;;;;;20.91;32.50;100865.31;5068897;28;20045;-63
2022/05/03 15:14:04;;;;;;;3.42;1.20;;;;;;;20.78;33.00;100862.16;5076232;28;20064;-64
2022/05/03 15:16:31;;;;;;;2.63;1.30;;;;;;;21.16;32.92;100855.66;5066986;28;20515;-64
2022/05/03 15:18:58;;;;;;;4.43;1.63;;;;;;;21.79;32.38;100855.53;5064416;28;20051;-65
2022/05/03 15:21:25;;;;;;;3.28;1.40;;;;;;;21.62;32.13;100848.41;5067753;28;20044;-63
2022/05/03 15:26:39;;;;;;;4.60;1.30;;;;;;;21.32;32.73;100853.19;5069157;28;20064;-64
2022/05/03 15:29:06;;;;;;;4.57;1.60;;;;;;;21.38;32.94;100849.88;5071795;28;20411;-62
2022/05/03 15:31:34;;;;;;;3.20;1.20;;;;;;;21.97;32.01;100856.34;5063709;28;20045;-61
2022/05/03 15:34:01;;;;;;;2.53;1.35;;;;;;;22.47;31.12;100857.44;5065029;28;20067;-63
2022/05/03 15:36:28;;;;;;;3.08;1.30;;;;;;;24.22;29.16;100845.41;5066742;28;20048;-62
2022/05/03 15:38:56;;;;;;;2.50;1.30;;;;;;;27.39;24.35;100847.84;5071868;28;20050;-64
2022/05/03 15:41:23;;;;;;;2.97;1.45;;;;;;;31.15;20.32;100852.25;5063518;28;20055;-63
2022/05/03 15:43:51;;;;;;;6.72;1.85;;;;;;;33.84;18.33;100855.63;5064247;28;20083;-64
2022/05/03 15:46:18;;;;;;;5.55;1.70;;;;;;;35.65;15.99;100852.28;5065497;28;20052;-64
2022/05/03 15:48:46;;;;;;;6.00;2.13;;;;;;;30.60;20.02;100854.63;5068007;28;20065;-63
2022/05/03 15:51:14;;;;;;;1.40;1.30;;;;;;;27.38;23.49;100857.00;5067612;28;20059;-62
2022/05/03 15:53:43;;;;;;;4.40;1.65;;;;;;;25.48;26.06;100850.56;5072461;28;20448;-64
2022/05/03 15:56:11;;;;;;;3.88;1.60;;;;;;;24.46;27.98;100849.88;5065920;28;20052;-63
2022/05/03 15:58:39;;;;;;;2.40;1.58;;;;;;;24.82;27.44;100841.28;5068678;28;20044;-63
2022/05/03 16:01:06;;;;;;;3.67;1.90;;;;;;;27.39;24.68;100841.63;5074171;28;20067;-64
2022/05/03 16:03:34;;;;;;;5.10;2.17;;;;;;;28.90;22.66;100840.78;5060958;28;20077;-64
2022/05/03 16:06:01;;;;;;;5.43;1.90;;;;;;;30.98;20.11;100838.34;5068712;28;20529;-64
2022/05/03 16:08:28;;;;;;;5.18;2.00;;;;;;;32.41;19.16;100848.34;5066268;28;20057;-64
2022/05/03 16:10:56;;;;;;;1.85;1.70;;;;;;;28.89;21.40;100828.28;5062575;28;20056;-64
2022/05/03 16:13:23;;;;;;;2.75;1.30;;;;;;;26.53;23.84;100835.31;5064315;28;20083;-62
2022/05/03 16:15:50;;;;;;;3.70;1.83;;;;;;;29.76;21.25;100834.59;5065178;28;20060;-64
2022/05/03 16:18:17;;;;;;;6.13;1.60;;;;;;;31.59;19.52;100836.84;5061303;28;20056;-64
2022/05/03 16:20:44;;;;;;;3.58;1.40;;;;;;;29.11;21.29;100830.84;5067319;28;20456;-64
2022/05/03 16:23:11;;;;;;;4.97;1.45;;;;;;;27.40;23.08;100838.72;5062693;28;20067;-64
2022/05/03 16:25:40;;;;;;;1.60;1.20;;;;;;;25.88;24.74;100835.03;5060850;28;20064;-64
2022/05/03 16:28:08;;;;;;;2.28;1.10;;;;;;;24.85;26.28;100837.38;5074239;28;20072;-63
2022/05/03 16:30:35;;;;;;;3.88;1.40;;;;;;;23.47;27.91;100845.72;5064749;28;20382;-64
2022/05/03 16:33:02;;;;;;;1.92;1.30;;;;;;;22.57;29.49;100835.84;5059180;28;20049;-63
2022/05/03 16:35:30;;;;;;;1.75;1.27;;;;;;;22.59;29.68;100837.34;5064797;28;20049;-63
2022/05/03 16:43:29;;;;;;;5.88;1.88;;;;;;;21.65;31.56;100832.00;5064472;28;20566;-64
2022/05/03 16:45:56;;;;;;;10.80;1.83;;;;;;;21.26;31.83;100839.56;5068321;28;20048;-63
2022/05/03 16:48:26;;;;;;;4.43;2.00;;;;;;;20.91;32.29;100834.03;5060108;28;20135;-67
2022/05/03 16:50:53;;;;;;;2.67;1.27;;;;;;;20.57;32.87;100833.84;5064719;28;20064;-67
2022/05/03 16:53:20;;;;;;;7.50;1.80;;;;;;;20.14;33.49;100834.47;5062616;28;20144;-67
2022/05/03 16:55:47;;;;;;;4.50;1.42;;;;;;;19.73;34.50;100839.25;5057735;28;20060;-63
2022/05/03 16:58:16;;;;;;;3.55;1.20;;;;;;;19.42;34.56;100843.91;5061604;28;20059;-64
2022/05/03 17:00:43;;;;;;;2.80;1.38;;;;;;;19.27;35.63;100840.81;5061445;28;20064;-62
2022/05/03 17:03:11;;;;;;;5.88;1.60;;;;;;;19.11;36.11;100843.22;5070197;28;20052;-62
2022/05/03 17:05:38;;;;;;;8.65;1.92;;;;;;;19.24;35.52;100843.78;5065698;28;20052;-60
2022/05/03 17:08:05;;;;;;;5.15;1.50;;;;;;;19.10;36.03;100837.03;5067149;28;20091;-61
2022/05/03 17:10:33;;;;;;;6.68;1.50;;;;;;;19.23;35.95;100842.94;5068000;28;20504;-62
2022/05/03 17:13:00;;;;;;;4.20;1.77;;;;;;;19.34;36.13;100838.44;5071950;28;20070;-61
2022/05/03 17:15:27;;;;;;;6.63;2.13;;;;;;;19.45;36.05;100843.59;5070881;28;20106;-61
2022/05/03 17:17:54;;;;;;;4.30;1.50;;;;;;;19.19;36.96;100844.19;5065970;28;20078;-61
2022/05/03 17:20:22;;;;;;;2.30;1.30;;;;;;;19.05;37.20;100836.63;5067739;28;20044;-61
2022/05/03 17:22:49;;;;;;;4.45;1.30;;;;;;;18.85;37.98;100838.41;5068363;28;20063;-61
2022/05/03 17:25:17;;;;;;;3.60;1.83;;;;;;;18.78;37.66;100834.63;5066120;28;20060;-61
2022/05/03 17:27:44;;;;;;;2.38;1.35;;;;;;;18.69;38.00;100838.13;5065008;28;20044;-61
2022/05/03 17:30:17;;;;;;;2.00;1.30;;;;;;;18.58;38.33;100844.34;5066286;28;20094;-62
2022/05/03 17:32:44;;;;;;;10.10;2.67;;;;;;;18.43;38.98;100841.25;5067353;28;20048;-62
2022/05/03 17:35:11;;;;;;;2.92;1.63;;;;;;;18.40;39.18;100846.00;5071270;28;20048;-61
2022/05/03 17:37:38;;;;;;;5.55;1.48;;;;;;;18.26;40.02;100849.88;5075737;28;20052;-61
2022/05/03 17:40:08;;;;;;;3.63;2.20;;;;;;;18.03;41.05;100854.53;5060591;28;20056;-62
2022/05/03 17:42:36;;;;;;;3.85;1.80;;;;;;;17.84;41.72;100855.28;5063423;28;20063;-62
2022/05/03 17:45:04;;;;;;;2.45;1.60;;;;;;;17.78;42.26;100863.78;5049580;28;20055;-60
2022/05/03 17:47:31;;;;;;;2.10;1.88;;;;;;;17.74;42.25;100862.38;5079544;28;20052;-61
2022/05/03 17:50:03;;;;;;;5.93;1.90;;;;;;;17.54;43.04;100865.84;5066130;28;20037;-62
2022/05/03 17:55:16;;;;;;;2.13;1.60;;;;;;;17.41;43.39;100872.19;5064444;28;20049;-62
2022/05/03 17:57:43;;;;;;;6.68;2.45;;;;;;;17.33;44.02;100879.97;5071073;28;20045;-62
2022/05/03 18:00:11;;;;;;;6.43;2.00;;;;;;;17.16;43.85;100877.91;5075970;28;20166;-63
2022/05/03 18:02:38;;;;;;;9.02;2.10;;;;;;;17.09;44.25;100880.19;5067622;28;20040;-60
2022/05/03 18:05:05;;;;;;;2.20;1.80;;;;;;;16.87;44.62;100881.09;5079462;28;20140;-61
2022/05/03 18:07:32;;;;;;;3.42;1.90;;;;;;;16.73;45.36;100884.03;5069464;28;20055;-61
2022/05/03 18:10:02;;;;;;;4.15;2.08;;;;;;;16.65;45.28;100887.28;5067688;28;20059;-61
2022/05/03 18:12:30;;;;;;;3.80;2.17;;;;;;;16.50;45.81;100888.50;5065184;28;20618;-62
2022/05/03 18:14:57;;;;;;;4.78;3.53;;;;;;;16.30;46.06;100890.09;5068433;28;20059;-61
2022/05/03 18:17:25;;;;;;;7.25;2.97;;;;;;;16.13;46.44;100895.88;5064890;28;20048;-61
2022/05/03 18:19:52;;;;;;;5.65;3.25;;;;;;;15.98;46.84;100894.41;5067335;28;20048;-62
2022/05/03 18:22:25;;;;;;;3.60;2.80;;;;;;;15.93;47.21;100900.06;5062000;28;20056;-63
2022/05/03 18:24:52;;;;;;;5.32;2.70;;;;;;;15.85;47.47;100897.16;5064749;28;20045;-63
2022/05/03 18:27:19;;;;;;;6.18;2.97;;;;;;;15.68;48.23;100901.94;5065289;28;20044;-63
2022/05/03 18:29:46;;;;;;;6.13;2.85;;;;;;;15.58;48.61;100900.06;5064265;28;20059;-63
2022/05/03 18:32:14;;;;;;;3.65;2.83;;;;;;;15.43;49.31;100896.75;5069455;28;20063;-64
2022/05/03 18:34:41;;;;;;;2.97;2.47;;;;;;;15.33;49.60;100901.91;5066051;28;20052;-64
2022/05/03 18:37:09;;;;;;;3.80;2.50;;;;;;;15.27;49.90;100907.69;5064653;28;20400;-62
2022/05/03 18:39:36;;;;;;;4.43;3.08;;;;;;;15.11;50.55;100902.66;5066294;28;20060;-62
2022/05/03 18:42:03;;;;;;;9.15;3.83;;;;;;;15.02;50.86;100907.78;5067298;28;20412;-62
2022/05/03 18:44:31;;;;;;;5.40;3.72;;;;;;;14.89;51.83;100905.16;5060990;28;20060;-65
2022/05/03 18:46:58;;;;;;;4.35;2.95;;;;;;;14.77;52.58;100906.03;5063890;28;20191;-68
2022/05/03 18:49:26;;;;;;;6.97;3.20;;;;;;;14.73;52.58;100908.09;5063446;28;20053;-66
2022/05/03 18:51:53;;;;;;;5.63;3.33;;;;;;;14.63;52.62;100915.88;5064974;28;20749;-65
2022/05/03 18:57:06;;;;;;;;;;;;;;;14.36;54.24;100915.97;5062973;28;20071;-66
2022/05/03 18:59:33;;;;;;;7.68;2.55;;;;;;;14.27;54.99;100915.75;5059002;28;20351;-66
2022/05/03 19:02:01;;;;;;;5.63;3.25;;;;;;;14.22;54.68;100917.88;5069704;28;20067;-65
2022/05/03 19:04:29;;;;;;;7.20;3.38;;;;;;;14.13;55.43;100925.50;5062066;28;20040;-65
2022/05/03 19:06:57;;;;;;;6.50;2.75;;;;;;;14.02;55.84;100938.63;5066374;28;20055;-65
2022/05/03 19:09:24;;;;;;;8.48;3.03;;;;;;;13.97;56.01;100931.97;5063933;28;20044;-66
2022/05/03 19:11:52;;;;;;;5.70;3.10;;;;;;;13.91;56.06;100936.72;5063638;28;20052;-63
2022/05/03 19:14:19;;;;;;;7.65;3.13;;;;;;;13.88;56.66;100936.94;5060491;28;20543;-68
2022/05/03 19:16:46;;;;;;;5.03;3.30;;;;;;;13.81;56.92;100934.78;5064535;28;20055;-66
2022/05/03 19:19:13;;;;;;;5.50;3.40;;;;;;;13.78;57.70;100941.16;5063096;28;20063;-66
2022/05/03 19:21:40;;;;;;;4.22;2.92;;;;;;;13.71;57.66;100939.84;5063706;28;20834;-66
2022/05/03 19:32:25;;;;;;;6.15;3.25;;;;;;;13.43;59.72;100951.44;5061305;28;20307;-65
2022/05/03 19:34:52;;;;;;;21.13;5.05;;;;;;;13.35;60.69;100951.91;5062757;28;20067;-62
2022/05/03 19:37:20;;;;;;;14.07;4.10;;;;;;;13.32;60.22;100960.03;5058857;28;20152;-66
2022/05/03 19:39:47;;;;;;;12.43;4.93;;;;;;;13.27;60.50;100954.22;5060015;28;20060;-60
2022/05/03 19:42:15;;;;;;;8.52;4.35;;;;;;;13.22;60.65;100956.31;5066686;28;20058;-63
2022/05/03 19:44:42;;;;;;;12.70;4.25;;;;;;;13.17;60.95;100956.56;5064156;28;20044;-63
2022/05/03 19:47:09;;;;;;;12.00;4.18;;;;;;;13.12;61.01;100956.03;5074508;28;20424;-63
2022/05/03 19:49:36;;;;;;;9.23;4.13;;;;;;;13.10;60.76;100955.28;5064100;28;20405;-62
2022/05/03 19:52:04;;;;;;;14.18;4.03;;;;;;;13.05;60.83;100952.06;5065175;28;20067;-63
2022/05/03 19:54:31;;;;;;;8.30;4.25;;;;;;;13.01;61.29;100958.50;5068557;28;20595;-63
2022/05/03 19:56:58;;;;;;;14.45;3.55;;;;;;;12.98;61.36;100956.06;5065007;28;20540;-61
2022/05/03 19:59:26;;;;;;;7.10;3.28;;;;;;;12.94;61.73;100959.84;5064118;28;20059;-63
2022/05/03 20:01:53;;;;;;;9.50;3.70;;;;;;;12.89;62.52;100967.22;5066098;28;20435;-64
2022/05/03 20:04:27;;;;;;;15.45;3.33;;;;;;;12.82;62.38;100966.75;5062065;28;20041;-63
2022/05/03 20:06:54;;;;;;;4.68;3.38;;;;;;;12.76;62.71;100966.28;5066307;28;20055;-64
2022/05/03 20:09:21;;;;;;;4.97;3.20;;;;;;;12.68;63.57;100977.31;5063430;28;20063;-62
2022/05/03 20:11:48;;;;;;;7.25;3.70;;;;;;;12.62;63.63;100981.19;5071577;28;20377;-61
2022/05/03 20:14:16;;;;;;;7.47;3.78;;;;;;;12.59;64.06;100985.81;5064247;28;22036;-62
2022/05/03 20:16:44;;;;;;;7.22;3.42;;;;;;;12.54;64.95;100995.81;5064225;28;20432;-63
2022/05/03 20:19:11;;;;;;;10.55;3.42;;;;;;;12.46;64.77;100996.28;5071944;28;20052;-64
2022/05/03 20:21:39;;;;;;;10.52;4.10;;;;;;;12.42;65.40;100994.75;5067203;28;20056;-63
2022/05/03 20:24:06;;;;;;;6.25;3.70;;;;;;;12.38;65.64;100996.75;5073515;28;20063;-62
2022/05/03 20:26:35;;;;;;;7.82;3.92;;;;;;;12.34;65.11;100997.03;5069719;28;20040;-64
2022/05/03 20:29:04;;;;;;;6.50;4.00;;;;;;;12.32;65.73;101001.53;5066157;28;20055;-61
2022/05/03 20:31:32;;;;;;;14.43;3.83;;;;;;;12.24;65.77;100995.88;5067394;28;20139;-62
2022/05/03 20:34:02;;;;;;;7.68;3.28;;;;;;;12.20;66.12;100997.84;5065151;28;20091;-61
2022/05/03 20:36:29;;;;;;;4.80;3.30;;;;;;;12.19;65.51;100997.94;5070243;28;20044;-63
2022/05/03 20:38:56;;;;;;;5.95;3.72;;;;;;;12.16;65.45;101005.13;5065651;28;20048;-63
2022/05/03 20:41:23;;;;;;;9.35;4.18;;;;;;;12.13;65.59;101004.44;5073801;28;20055;-62
2022/05/03 20:43:54;;;;;;;9.10;4.75;;;;;;;12.12;66.23;101011.50;5067522;28;20409;-62
2022/05/03 20:49:08;;;;;;;7.78;4.28;;;;;;;12.06;66.84;101014.50;5071215;28;20049;-62
2022/05/03 20:51:36;;;;;;;7.72;3.67;;;;;;;12.02;66.98;101010.38;5066838;28;20349;-61
2022/05/03 20:54:03;;;;;;;6.97;3.38;;;;;;;12.01;66.12;101016.56;5075796;28;20044;-61
2022/05/03 20:56:30;;;;;;;7.32;4.00;;;;;;;12.02;66.01;101020.91;5066861;28;20053;-62
2022/05/03 20:58:57;;;;;;;5.57;3.92;;;;;;;12.00;65.88;101022.78;5072368;28;20412;-60
2022/05/03 21:01:34;;;;;;;7.45;4.45;;;;;;;11.97;65.92;101022.94;5063373;28;20698;-61
2022/05/03 21:04:03;;;;;;;5.53;3.85;;;;;;;11.94;66.01;101031.06;5064678;28;21015;-61
2022/05/03 21:06:31;;;;;;;9.30;3.80;;;;;;;11.94;66.01;101027.59;5086669;28;20044;-61
2022/05/03 21:08:58;;;;;;;10.00;4.28;;;;;;;11.93;65.74;101023.22;5071408;28;20071;-62
2022/05/03 21:11:26;;;;;;;4.90;3.60;;;;;;;11.93;65.65;101025.84;5062714;28;20354;-61
2022/05/03 21:13:53;;;;;;;7.70;4.32;;;;;;;11.89;66.03;101028.69;5070164;28;20055;-63
2022/05/03 21:16:20;;;;;;;5.47;4.10;;;;;;;11.84;65.94;101025.47;5066844;28;20045;-62
2022/05/03 21:18:50;;;;;;;5.85;3.60;;;;;;;11.82;66.21;101023.81;5067253;28;20059;-62
2022/05/03 21:21:18;;;;;;;7.70;4.30;;;;;;;11.79;65.95;101030.09;5071573;28;20062;-63
2022/05/03 21:23:45;;;;;;;9.90;4.80;;;;;;;11.76;66.94;101026.81;5072689;28;21008;-62
2022/05/03 21:26:12;;;;;;;6.75;4.32;;;;;;;11.72;66.59;101027.94;5075403;28;20143;-61
2022/05/03 21:28:39;;;;;;;7.90;4.25;;;;;;;11.66;67.20;101031.75;5068544;28;20871;-61
2022/05/03 21:31:08;;;;;;;7.93;4.38;;;;;;;11.62;66.83;101022.34;5046191;22;20046;-67
2022/05/03 21:33:36;;;;;;;9.18;3.75;;;;;;;11.58;66.76;101031.34;4985580;28;20062;-66
2022/05/03 21:36:03;;;;;;;7.32;4.57;;;;;;;11.55;67.37;101029.72;5005644;28;20398;-65
2022/05/03 21:38:30;;;;;;;6.38;3.88;;;;;;;11.53;67.34;101026.34;5010219;28;20058;-66
2022/05/03 21:40:58;;;;;;;7.13;4.25;;;;;;;11.53;67.24;101020.22;5007682;28;20614;-65
2022/05/03 21:43:25;;;;;;;10.10;4.57;;;;;;;11.53;67.01;101031.63;5011235;28;20054;-65
2022/05/03 21:45:56;;;;;;;7.65;4.63;;;;;;;11.55;66.97;101028.88;5011274;28;20069;-65
2022/05/03 21:48:24;;;;;;;7.90;4.35;;;;;;;11.56;67.28;101031.41;5005300;28;20069;-65
2022/05/03 21:50:51;;;;;;;6.88;3.75;;;;;;;11.56;67.36;101033.22;5005176;28;20061;-65
2022/05/03 21:53:18;;;;;;;7.55;4.60;;;;;;;11.55;67.39;101029.72;5016029;28;20061;-65
2022/05/03 21:55:45;;;;;;;5.75;3.95;;;;;;;11.55;67.83;101029.72;4987905;28;20061;-65
2022/05/03 21:58:13;;;;;;;6.13;4.00;;;;;;;11.52;68.26;101035.16;5010215;28;20571;-63
2022/05/03 22:00:42;;;;;;;6.97;3.75;;;;;;;11.48;69.20;101033.63;5002841;28;20065;-65
2022/05/03 22:03:10;;;;;;;5.90;4.30;;;;;;;11.44;69.37;101029.50;5008905;28;20073;-65
2022/05/03 22:05:37;;;;;;;9.25;4.40;;;;;;;11.39;69.47;101040.31;5006438;28;20053;-64
2022/05/03 22:08:04;;;;;;;6.85;4.55;;;;;;;11.37;69.80;101039.53;5006177;28;20072;-64
2022/05/03 22:10:31;;;;;;;7.93;4.55;;;;;;;11.36;69.88;101036.97;4992972;28;20104;-64
2022/05/03 22:12:59;;;;;;;9.63;4.28;;;;;;;11.35;69.52;101033.50;4992632;28;20128;-65
2022/05/03 22:15:26;;;;;;;7.53;4.13;;;;;;;11.33;69.60;101034.50;5007378;28;20061;-65
2022/05/03 22:17:53;;;;;;;10.00;4.75;;;;;;;11.27;69.76;101035.69;5007774;28;20054;-64
2022/05/03 22:20:21;;;;;;;6.05;4.57;;;;;;;11.26;69.90;101039.28;5006420;28;20552;-65
2022/05/03 22:22:48;;;;;;;8.02;5.65;;;;;;;11.24;69.78;101037.66;5003242;28;20058;-64
2022/05/03 22:25:15;;;;;;;8.52;4.35;;;;;;;11.23;70.07;101036.81;5002647;28;20043;-64
2022/05/03 22:27:43;;;;;;;6.55;4.80;;;;;;;11.19;70.41;101042.31;5007820;28;20057;-65
2022/05/03 22:30:10;;;;;;;7.25;5.13;;;;;;;11.16;70.92;101048.59;5005010;28;22437;-65
2022/05/03 22:32:37;;;;;;;7.88;4.47;;;;;;;11.14;71.03;101048.69;5004906;28;20072;-65
2022/05/03 22:35:05;;;;;;;7.68;4.43;;;;;;;11.12;70.84;101050.56;5004630;28;20067;-65
2022/05/03 22:37:32;;;;;;;11.07;4.75;;;;;;;11.11;71.60;101050.63;5003055;28;20045;-64
2022/05/03 22:39:59;;;;;;;7.47;4.43;;;;;;;11.10;71.08;101054.22;4982837;28;20049;-65
2022/05/03 22:42:34;;;;;;;6.18;4.50;;;;;;;11.09;71.13;101052.53;5006914;28;20060;-65
2022/05/03 22:45:07;;;;;;;11.93;4.57;;;;;;;11.10;71.15;101055.06;5004087;28;20084;-64
2022/05/03 22:47:35;;;;;;;5.40;3.90;;;;;;;11.15;70.85;101058.28;5007381;28;20050;-66
2022/05/03 22:50:05;;;;;;;5.47;4.20;;;;;;;11.18;71.15;101061.72;5006033;28;20053;-65
2022/05/03 22:52:33;;;;;;;7.68;4.97;;;;;;;11.21;70.96;101061.53;5007986;28;20050;-64
2022/05/03 22:55:01;;;;;;;6.95;5.07;;;;;;;11.25;70.21;101056.00;4990194;28;20451;-65
2022/05/03 22:57:28;;;;;;;9.00;5.10;;;;;;;11.29;70.18;101062.81;5010964;28;20391;-64
2022/05/03 22:59:55;;;;;;;7.25;4.35;;;;;;;11.31;70.25;101060.97;5008328;28;20050;-65
2022/05/03 23:02:22;;;;;;;8.60;4.97;;;;;;;11.39;70.16;101063.16;5007536;28;20058;-65
2022/05/03 23:04:49;;;;;;;6.57;4.55;;;;;;;11.45;70.64;101057.56;5002866;28;20446;-65
2022/05/03 23:07:18;;;;;;;6.50;4.25;;;;;;;11.42;71.20;101060.34;5003399;28;20050;-65
2022/05/03 23:09:45;;;;;;;9.43;4.57;;;;;;;11.41;71.27;101053.38;5005149;28;20064;-65
2022/05/03 23:12:12;;;;;;;6.20;4.38;;;;;;;11.46;70.60;101058.41;5010287;28;20387;-65
2022/05/03 23:14:39;;;;;;;8.32;4.93;;;;;;;11.48;70.74;101057.38;5005180;28;20050;-64
2022/05/03 23:17:06;;;;;;;10.50;4.90;;;;;;;11.50;70.58;101050.22;5000893;28;20060;-64
2022/05/03 23:19:34;;;;;;;6.47;4.72;;;;;;;11.50;70.97;101047.59;5002912;28;20061;-64
2022/05/03 23:22:02;;;;;;;7.95;4.40;;;;;;;11.51;70.85;101062.47;5006477;28;20064;-64
2022/05/03 23:24:29;;;;;;;9.18;4.85;;;;;;;11.55;70.33;101064.00;5006210;28;20045;-65
2022/05/03 23:26:56;;;;;;;10.13;5.05;;;;;;;11.57;70.87;101056.88;5003728;28;20058;-65
2022/05/03 23:29:23;;;;;;;9.30;4.95;;;;;;;11.52;70.71;101058.03;5005549;28;20068;-65
2022/05/03 23:31:50;;;;;;;6.32;4.68;;;;;;;11.48;71.21;101056.50;5005272;28;20054;-65
2022/05/03 23:37:04;;;;;;;6.60;4.70;;;;;;;11.40;72.19;101055.19;5007147;28;20045;-65
2022/05/03 23:39:31;;;;;;;6.93;4.90;;;;;;;11.34;72.10;101057.28;5000529;28;20050;-65
2022/05/03 23:41:59;;;;;;;7.57;5.15;;;;;;;11.29;71.84;101054.06;5007104;28;20058;-64
2022/05/03 23:44:26;;;;;;;9.55;4.68;;;;;;;11.26;71.50;101052.47;5005348;28;20061;-63
2022/05/03 23:46:53;;;;;;;8.65;5.57;;;;;;;11.18;72.69;101048.53;5012079;28;20056;-64
2022/05/03 23:49:20;;;;;;;8.15;4.97;;;;;;;11.11;72.54;101042.72;5005422;28;20045;-64
2022/05/03 23:51:47;;;;;;;9.23;4.95;;;;;;;11.08;72.91;101049.03;5002936;28;20060;-64
2022/05/03 23:54:14;;;;;;;8.10;4.70;;;;;;;11.02;72.82;101043.22;5009120;28;20061;-64
2022/05/03 23:56:41;;;;;;;8.73;4.75;;;;;;;11.02;72.53;101044.09;4990650;28;20054;-65
2022/05/03 23:59:08;;;;;;;11.55;5.05;;;;;;;10.96;73.01;101041.78;5004978;28;20501;-65
